Time;durP1;ratioP1;P1;durP2;ratioP2;P2;SDS_P1;SDS_P2;PMS_P1;PMS_P2;Temp;Humidity;BMP_temperature;BMP_pressure;BME280_temperature;BME280_humidity;BME280_pressure;Samples;Min_cycle;Max_cycle;Signal;HPM_P1;HPM_P2
2023/10/14 00:01:28;;;;;;;24.73;8.90;;;15.70;99.90;;;;;;5027913;28;20099;-74
2023/10/14 00:03:55;;;;;;;19.33;8.55;;;15.70;99.90;;;;;;5027410;28;20112;-75
2023/10/14 00:06:22;;;;;;;16.35;7.72;;;15.60;99.90;;;;;;5028838;28;20029;-74
2023/10/14 00:08:50;;;;;;;18.25;8.60;;;15.60;99.90;;;;;;5028772;28;20095;-75
2023/10/14 00:11:16;;;;;;;21.75;9.23;;;15.50;99.90;;;;;;5028557;28;20096;-75
2023/10/14 00:13:49;;;;;;;19.00;9.88;;;15.50;99.90;;;;;;5028745;28;20029;-75
2023/10/14 00:18:55;;;;;;;18.92;8.73;;;15.50;99.90;;;;;;5028874;28;20077;-74
2023/10/14 00:21:23;;;;;;;24.08;8.75;;;15.40;99.90;;;;;;5032895;28;20028;-74
2023/10/14 00:23:51;;;;;;;18.58;8.02;;;15.30;99.90;;;;;;5032799;28;20029;-74
2023/10/14 00:26:19;;;;;;;12.48;7.50;;;15.30;99.90;;;;;;5032877;28;20025;-75
2023/10/14 00:28:45;;;;;;;25.92;8.70;;;15.30;99.90;;;;;;5031438;28;20075;-75
2023/10/14 00:31:13;;;;;;;19.90;8.10;;;15.40;99.90;;;;;;5031336;28;20029;-76
2023/10/14 00:33:38;;;;;;;14.38;7.97;;;15.40;99.90;;;;;;5032528;28;20033;-75
2023/10/14 00:36:10;;;;;;;17.75;8.75;;;15.30;99.90;;;;;;5031252;28;20032;-76
2023/10/14 00:38:38;;;;;;;19.50;9.23;;;15.20;99.90;;;;;;5032768;28;20033;-75
2023/10/14 00:41:03;;;;;;;16.33;9.48;;;15.20;99.90;;;;;;5032620;28;20021;-75
2023/10/14 00:43:29;;;;;;;18.92;7.97;;;15.10;99.90;;;;;;5031139;28;20490;-74
2023/10/14 00:45:55;;;;;;;18.58;9.38;;;15.10;99.90;;;;;;5032119;28;20041;-75
2023/10/14 00:48:27;;;;;;;19.08;9.27;;;15.30;99.90;;;;;;5031056;28;20052;-76
2023/10/14 00:50:58;;;;;;;18.05;8.73;;;15.20;99.90;;;;;;5031353;28;20095;-75
2023/10/14 00:53:28;;;;;;;21.55;9.00;;;15.10;99.90;;;;;;5031254;28;20068;-75
2023/10/14 00:55:54;;;;;;;26.55;10.20;;;15.00;99.90;;;;;;5030843;28;20513;-75
2023/10/14 00:58:23;;;;;;;21.80;8.90;;;15.10;99.90;;;;;;5032113;28;20104;-75
2023/10/14 01:00:58;;;;;;;15.05;7.22;;;15.10;99.90;;;;;;5032058;28;20052;-75
2023/10/14 01:03:32;;;;;;;21.30;8.80;;;15.10;99.90;;;;;;5032236;28;20029;-76
2023/10/14 01:06:05;;;;;;;17.60;9.07;;;15.10;99.90;;;;;;5028415;28;20029;-75
2023/10/14 01:08:31;;;;;;;15.63;8.18;;;15.10;99.90;;;;;;5032100;28;20044;-75
2023/10/14 01:10:58;;;;;;;16.15;7.80;;;15.10;99.90;;;;;;5031457;28;20104;-76
2023/10/14 01:13:24;;;;;;;16.75;8.85;;;15.10;99.90;;;;;;5032034;28;20163;-75
2023/10/14 01:16:00;;;;;;;17.95;9.38;;;15.20;99.90;;;;;;5031917;28;20502;-76
2023/10/14 01:18:26;;;;;;;22.35;9.95;;;15.10;99.90;;;;;;5030326;28;20108;-74
2023/10/14 01:20:52;;;;;;;20.30;8.63;;;15.10;99.90;;;;;;5030579;28;20033;-76
2023/10/14 01:23:17;;;;;;;14.00;7.68;;;15.00;99.90;;;;;;5031611;28;20095;-74
2023/10/14 01:25:47;;;;;;;16.45;8.70;;;14.90;99.90;;;;;;5029959;28;20095;-74
2023/10/14 01:28:29;;;;;;;20.30;9.30;;;15.00;99.90;;;;;;5031528;28;20049;-75
2023/10/14 01:31:11;;;;;;;21.73;9.15;;;14.90;99.90;;;;;;5029680;28;20080;-76
2023/10/14 01:33:37;;;;;;;21.92;9.27;;;14.90;99.90;;;;;;5030343;28;20083;-75
2023/10/14 01:36:04;;;;;;;24.92;8.43;;;14.90;99.90;;;;;;5031664;28;20032;-75
2023/10/14 01:38:31;;;;;;;15.98;8.70;;;14.90;99.90;;;;;;5031328;28;20037;-75
2023/10/14 01:40:57;;;;;;;15.38;7.20;;;14.90;99.90;;;;;;5029934;28;20048;-76
2023/10/14 01:43:30;;;;;;;16.45;8.73;;;14.80;99.90;;;;;;5031321;28;20132;-75
2023/10/14 01:48:22;;;;;;;12.43;8.05;;;14.70;99.90;;;;;;5032515;28;20069;-75
2023/10/14 01:50:54;;;;;;;17.45;8.95;;;14.70;99.90;;;;;;5031131;28;20478;-75
2023/10/14 01:53:23;;;;;;;20.58;8.55;;;14.70;99.90;;;;;;5031765;28;20034;-76
2023/10/14 01:55:55;;;;;;;19.23;8.70;;;14.70;99.90;;;;;;5029948;28;20188;-75
2023/10/14 01:58:22;;;;;;;17.45;8.05;;;14.70;99.90;;;;;;5029293;28;20026;-75
2023/10/14 02:00:53;;;;;;;19.40;8.50;;;14.70;99.90;;;;;;5035323;28;20021;-77
2023/10/14 02:03:22;;;;;;;16.67;9.52;;;14.70;99.90;;;;;;5039090;28;20033;-76
2023/10/14 02:05:51;;;;;;;18.92;8.48;;;14.70;99.90;;;;;;5044365;28;20069;-75
2023/10/14 02:08:21;;;;;;;18.58;10.05;;;14.70;99.90;;;;;;5030984;28;20045;-75
2023/10/14 02:10:50;;;;;;;14.93;9.38;;;14.70;99.90;;;;;;5030539;28;20535;-75
2023/10/14 02:13:16;;;;;;;21.20;9.18;;;14.60;99.90;;;;;;5029055;28;20508;-75
2023/10/14 02:15:46;;;;;;;20.58;9.10;;;14.50;99.90;;;;;;5030490;28;20029;-74
2023/10/14 02:18:22;;;;;;;20.17;9.15;;;14.50;99.90;;;;;;5028949;28;20141;-75
2023/10/14 02:20:57;;;;;;;;;;;14.50;99.90;;;;;;5030701;28;20033;-75
2023/10/14 02:23:29;;;;;;;17.42;8.13;;;14.40;99.90;;;;;;5030744;28;19916;-76
2023/10/14 02:25:59;;;;;;;12.90;6.68;;;14.40;99.90;;;;;;5028838;28;20031;-76
2023/10/14 02:28:39;;;;;;;14.05;8.35;;;14.40;99.90;;;;;;5027234;28;20571;-75
2023/10/14 02:31:15;;;;;;;13.38;7.45;;;14.30;99.90;;;;;;5028839;28;20029;-75
2023/10/14 02:33:45;;;;;;;14.07;7.90;;;14.30;99.90;;;;;;5028995;28;20087;-75
2023/10/14 02:36:15;;;;;;;16.17;7.88;;;14.30;99.90;;;;;;5044171;28;20091;-75
2023/10/14 02:38:43;;;;;;;16.63;9.75;;;14.30;99.90;;;;;;5028836;28;20083;-75
2023/10/14 02:41:09;;;;;;;19.52;8.38;;;14.30;99.90;;;;;;5028924;28;20033;-75
2023/10/14 02:43:37;;;;;;;14.65;8.95;;;14.30;99.90;;;;;;5028995;28;20107;-76
2023/10/14 02:46:10;;;;;;;15.40;8.20;;;14.30;99.90;;;;;;5028949;28;20025;-76
2023/10/14 02:48:54;;;;;;;14.18;7.75;;;14.30;99.90;;;;;;5030045;28;20048;-76
2023/10/14 02:54:15;;;;;;;15.50;7.65;;;14.30;99.90;;;;;;5030284;28;20036;-76
2023/10/14 02:59:23;;;;;;;18.98;8.50;;;14.10;99.90;;;;;;5029972;28;20083;-74
2023/10/14 03:02:09;;;;;;;12.73;8.60;;;14.20;99.90;;;;;;5028656;28;20022;-75
2023/10/14 03:10:34;;;;;;;15.38;9.27;;;14.20;99.90;;;;;;5027055;28;20316;-76
2023/10/14 03:13:00;;;;;;;19.10;9.35;;;14.30;99.90;;;;;;5027083;28;20522;-75
2023/10/14 03:15:30;;;;;;;20.13;10.07;;;14.30;99.90;;;;;;5028314;28;20124;-76
2023/10/14 03:18:03;;;;;;;17.98;9.10;;;14.30;99.90;;;;;;5028942;28;20576;-76
2023/10/14 03:23:05;;;;;;;19.67;9.48;;;14.20;99.90;;;;;;5029279;28;20033;-76
2023/10/14 03:25:35;;;;;;;23.92;8.75;;;14.20;99.90;;;;;;5029395;28;20036;-76
2023/10/14 03:28:14;;;;;;;18.58;9.90;;;14.00;99.90;;;;;;5029332;28;20037;-76
2023/10/14 03:30:44;;;;;;;23.13;11.38;;;14.00;99.90;;;;;;5044688;28;20029;-75
2023/10/14 03:33:12;;;;;;;23.50;10.45;;;14.10;99.90;;;;;;5029406;28;20025;-75
2023/10/14 03:35:38;;;;;;;17.67;9.48;;;14.00;99.90;;;;;;5027959;28;20032;-76
2023/10/14 03:41:19;;;;;;;16.27;8.35;;;13.90;99.90;;;;;;5027655;28;20025;-75
2023/10/14 03:46:35;;;;;;;22.95;10.38;;;13.80;99.90;;;;;;5029292;28;20036;-76
2023/10/14 03:49:20;;;;;;;18.55;10.00;;;13.80;99.90;;;;;;5029001;28;20040;-75
2023/10/14 03:51:47;;;;;;;23.73;10.38;;;13.90;99.90;;;;;;5027743;28;20040;-74
2023/10/14 03:54:19;;;;;;;20.77;10.88;;;13.90;99.90;;;;;;5027327;28;20052;-76
2023/10/14 03:56:45;;;;;;;17.08;9.82;;;14.00;99.90;;;;;;5029108;28;20035;-76
2023/10/14 03:59:20;;;;;;;22.10;11.73;;;14.00;99.90;;;;;;5028953;28;20025;-77
2023/10/14 04:01:46;;;;;;;19.23;9.93;;;13.90;99.90;;;;;;5028809;28;20394;-76
2023/10/14 04:04:17;;;;;;;25.17;10.32;;;13.90;99.90;;;;;;5028652;28;20034;-76
2023/10/14 04:06:51;;;;;;;22.48;10.68;;;14.00;99.90;;;;;;5028940;28;20028;-77
2023/10/14 04:09:23;;;;;;;19.05;9.65;;;14.00;99.90;;;;;;5027367;28;20049;-76
2023/10/14 04:11:52;;;;;;;15.32;8.27;;;13.90;99.90;;;;;;5027365;28;20021;-75
2023/10/14 04:14:22;;;;;;;15.25;9.35;;;13.80;99.90;;;;;;5028616;28;20029;-76
2023/10/14 04:16:50;;;;;;;17.70;9.40;;;13.80;99.90;;;;;;5027164;28;20021;-76
2023/10/14 04:19:44;;;;;;;14.40;8.82;;;13.80;99.90;;;;;;5028841;28;20033;-76
2023/10/14 04:24:53;;;;;;;15.90;9.13;;;13.80;99.90;;;;;;5028711;28;20033;-76
2023/10/14 04:30:12;;;;;;;19.17;9.90;;;13.70;99.90;;;;;;5028734;28;20083;-75
2023/10/14 04:33:03;;;;;;;19.42;11.13;;;13.80;99.90;;;;;;5027642;28;20029;-75
2023/10/14 04:35:33;;;;;;;21.05;11.18;;;13.80;99.90;;;;;;5028487;28;20425;-75
2023/10/14 04:38:13;;;;;;;19.67;10.40;;;13.70;99.90;;;;;;5027476;28;20061;-76
2023/10/14 04:40:41;;;;;;;19.73;10.82;;;13.70;99.90;;;;;;5027196;28;20032;-74
2023/10/14 04:45:51;;;;;;;22.23;11.52;;;13.80;99.90;;;;;;5028493;28;20096;-75
2023/10/14 04:48:17;;;;;;;21.33;11.88;;;13.80;99.90;;;;;;5043647;28;20493;-75
2023/10/14 04:50:44;;;;;;;25.13;12.98;;;13.70;99.90;;;;;;5028339;28;20022;-75
2023/10/14 04:53:13;;;;;;;31.70;12.23;;;13.70;99.90;;;;;;5043639;28;20030;-75
2023/10/14 04:55:44;;;;;;;29.63;12.52;;;13.80;99.90;;;;;;5028372;28;20029;-75
2023/10/14 05:00:45;;;;;;;22.10;11.80;;;13.80;99.90;;;;;;5028159;28;20033;-75
2023/10/14 05:03:18;;;;;;;18.13;10.23;;;13.80;99.90;;;;;;5027011;28;20033;-76
2023/10/14 05:06:03;;;;;;;20.30;10.68;;;13.70;99.90;;;;;;5043481;28;20029;-75
2023/10/14 05:08:44;;;;;;;20.20;11.15;;;13.70;99.90;;;;;;5030684;28;20639;-74
2023/10/14 05:11:14;;;;;;;19.70;10.25;;;13.70;99.90;;;;;;5047346;28;20091;-74
2023/10/14 05:13:42;;;;;;;19.92;12.85;;;13.70;99.90;;;;;;5032006;28;20059;-77
2023/10/14 05:16:15;;;;;;;27.58;12.35;;;13.70;99.90;;;;;;5031806;28;20029;-76
2023/10/14 05:18:58;;;;;;;15.82;10.25;;;13.70;99.90;;;;;;5031761;28;20046;-76
2023/10/14 05:21:37;;;;;;;21.92;11.02;;;13.70;99.90;;;;;;5030513;28;20025;-74
2023/10/14 05:24:09;;;;;;;16.42;9.45;;;13.70;99.90;;;;;;5031610;28;20049;-76
2023/10/14 05:26:48;;;;;;;22.70;12.15;;;13.70;99.90;;;;;;5031626;28;20025;-75
2023/10/14 05:29:17;;;;;;;22.98;12.18;;;13.90;99.90;;;;;;5030354;28;20124;-74
2023/10/14 05:31:44;;;;;;;25.10;12.77;;;13.90;99.90;;;;;;5030275;28;20022;-75
2023/10/14 05:34:10;;;;;;;23.15;13.02;;;14.00;99.90;;;;;;5031432;28;20095;-76
2023/10/14 05:36:36;;;;;;;27.63;13.20;;;14.10;99.90;;;;;;5031513;28;20815;-76
2023/10/14 05:39:03;;;;;;;28.13;12.45;;;14.20;99.90;;;;;;5031327;28;20029;-75
2023/10/14 05:41:30;;;;;;;19.15;9.95;;;14.20;99.90;;;;;;5030086;28;20032;-76
2023/10/14 05:43:55;;;;;;;16.10;10.60;;;14.10;99.90;;;;;;5030091;28;20537;-75
2023/10/14 05:46:23;;;;;;;16.60;9.50;;;14.10;99.90;;;;;;5046561;28;20033;-75
2023/10/14 05:48:52;;;;;;;26.50;12.32;;;14.10;99.90;;;;;;5029864;28;20041;-76
2023/10/14 05:51:19;;;;;;;18.88;11.93;;;14.20;99.90;;;;;;5046662;28;20163;-76
2023/10/14 05:53:46;;;;;;;20.30;9.85;;;14.30;99.90;;;;;;5031345;28;20038;-76
2023/10/14 05:56:15;;;;;;;12.15;8.32;;;14.30;99.90;;;;;;5031312;28;20013;-76
2023/10/14 05:58:48;;;;;;;13.23;8.45;;;14.30;99.90;;;;;;5029793;28;20041;-76
2023/10/14 06:01:16;;;;;;;15.32;9.25;;;14.40;99.90;;;;;;5030893;28;20079;-76
2023/10/14 06:03:42;;;;;;;19.05;10.95;;;14.50;99.90;;;;;;5029729;28;20032;-76
2023/10/14 06:06:09;;;;;;;28.70;11.25;;;14.50;99.90;;;;;;5029452;28;20430;-75
2023/10/14 06:08:39;;;;;;;18.33;10.10;;;14.70;99.90;;;;;;5046172;28;20107;-75
2023/10/14 06:11:05;;;;;;;16.52;9.15;;;14.70;99.90;;;;;;5045944;28;20072;-76
2023/10/14 06:13:34;;;;;;;15.15;9.80;;;14.90;99.90;;;;;;5030730;28;20617;-74
2023/10/14 06:16:06;;;;;;;19.27;10.70;;;15.00;99.90;;;;;;5029805;28;20025;-75
2023/10/14 06:18:32;;;;;;;15.27;9.18;;;15.20;99.90;;;;;;5045872;28;20046;-75
2023/10/14 06:20:59;;;;;;;20.77;10.48;;;15.30;99.90;;;;;;5030616;28;20383;-75
2023/10/14 06:23:28;;;;;;;16.33;8.75;;;15.50;99.90;;;;;;5029288;28;20029;-76
2023/10/14 06:25:55;;;;;;;21.65;10.85;;;15.70;99.90;;;;;;5030549;28;20033;-75
2023/10/14 06:28:21;;;;;;;14.38;9.25;;;15.90;99.90;;;;;;5029051;28;20506;-76
2023/10/14 06:30:47;;;;;;;19.33;10.88;;;16.10;99.90;;;;;;5030466;28;20029;-75
2023/10/14 06:33:13;;;;;;;19.70;10.73;;;16.40;99.90;;;;;;5030375;28;20025;-76
2023/10/14 06:35:44;;;;;;;26.42;9.90;;;16.70;99.90;;;;;;5028735;28;20029;-75
2023/10/14 06:38:15;;;;;;;21.40;10.60;;;17.00;99.90;;;;;;5030257;28;20079;-75
2023/10/14 06:40:52;;;;;;;27.02;12.40;;;17.30;99.90;;;;;;5030390;28;20026;-75
2023/10/14 06:43:19;;;;;;;18.13;10.02;;;17.60;99.90;;;;;;5030219;28;20033;-76
2023/10/14 06:45:46;;;;;;;15.60;8.77;;;17.60;99.90;;;;;;5028952;28;20033;-76
2023/10/14 06:48:12;;;;;;;20.88;9.05;;;17.90;99.90;;;;;;5030015;28;20040;-75
2023/10/14 06:50:41;;;;;;;15.63;9.38;;;18.10;99.90;;;;;;5030064;28;20033;-75
2023/10/14 06:53:11;;;;;;;14.73;8.48;;;18.30;99.90;;;;;;5029987;28;20028;-75
2023/10/14 06:55:37;;;;;;;19.67;11.82;;;18.40;99.90;;;;;;5029821;28;20029;-75
2023/10/14 06:58:18;;;;;;;25.38;9.32;;;18.30;99.90;;;;;;5028590;28;20030;-75
2023/10/14 07:00:45;;;;;;;17.30;10.25;;;18.30;99.90;;;;;;5028595;28;20033;-75
2023/10/14 07:03:14;;;;;;;20.55;9.90;;;18.40;99.90;;;;;;5029683;28;20067;-76
2023/10/14 07:05:48;;;;;;;16.83;9.02;;;18.50;99.90;;;;;;5029776;28;20542;-75
2023/10/14 07:08:14;;;;;;;20.60;9.40;;;18.60;99.90;;;;;;5028346;28;20508;-74
2023/10/14 07:10:40;;;;;;;13.73;8.88;;;18.70;99.90;;;;;;5028375;28;20025;-75
2023/10/14 07:13:06;;;;;;;14.93;9.48;;;18.80;99.90;;;;;;5029637;28;20521;-76
2023/10/14 07:15:36;;;;;;;14.27;8.57;;;18.80;99.90;;;;;;5029618;28;20030;-74
2023/10/14 07:18:02;;;;;;;18.98;9.65;;;18.80;99.90;;;;;;5029415;28;20057;-75
2023/10/14 07:20:31;;;;;;;17.80;9.23;;;18.80;99.90;;;;;;5029330;28;20018;-75
2023/10/14 07:22:58;;;;;;;20.02;8.40;;;18.80;99.90;;;;;;5029427;28;20037;-76
2023/10/14 07:25:31;;;;;;;20.58;10.65;;;18.90;99.90;;;;;;5029302;28;20033;-75
2023/10/14 07:27:59;;;;;;;18.80;8.90;;;18.90;99.90;;;;;;5029394;28;20466;-76
2023/10/14 07:30:27;;;;;;;13.60;9.30;;;18.90;99.90;;;;;;5027711;28;20022;-75
2023/10/14 07:32:54;;;;;;;22.40;10.60;;;19.00;99.90;;;;;;5029332;28;20075;-75
2023/10/14 07:35:19;;;;;;;21.58;11.35;;;19.10;99.90;;;;;;5029276;28;20025;-75
2023/10/14 07:37:48;;;;;;;23.50;10.40;;;19.20;99.90;;;;;;5029162;28;20021;-76
2023/10/14 07:40:27;;;;;;;27.17;11.80;;;19.20;99.90;;;;;;5044513;28;20029;-75
2023/10/14 07:43:05;;;;;;;19.08;10.57;;;19.30;99.90;;;;;;5029191;28;20028;-76
2023/10/14 07:45:35;;;;;;;26.92;13.70;;;19.30;99.90;;;;;;5029317;28;20033;-76
2023/10/14 07:48:08;;;;;;;21.40;11.48;;;19.30;99.90;;;;;;5029016;28;20033;-75
2023/10/14 07:50:42;;;;;;;23.17;12.43;;;19.40;99.90;;;;;;5029016;28;20021;-76
2023/10/14 07:53:12;;;;;;;20.73;13.38;;;19.50;99.90;;;;;;5044117;28;20552;-76
2023/10/14 07:55:42;;;;;;;22.88;14.38;;;19.60;99.90;;;;;;5028881;28;20029;-76
2023/10/14 07:58:08;;;;;;;23.67;11.60;;;19.50;99.90;;;;;;5027633;28;20036;-75
2023/10/14 08:00:50;;;;;;;25.35;13.30;;;19.60;99.90;;;;;;5027790;28;20033;-73
2023/10/14 08:03:20;;;;;;;23.23;11.85;;;19.70;99.90;;;;;;5028989;28;20040;-76
2023/10/14 08:05:49;;;;;;;20.20;11.15;;;19.70;99.90;;;;;;5028725;28;20105;-75
2023/10/14 08:08:16;;;;;;;19.30;12.77;;;19.80;99.90;;;;;;5044096;28;20490;-75
2023/10/14 08:10:43;;;;;;;21.65;13.23;;;19.90;99.90;;;;;;5027452;28;20033;-76
2023/10/14 08:13:09;;;;;;;21.48;12.70;;;20.10;99.90;;;;;;5027558;28;20498;-73
2023/10/14 08:15:36;;;;;;;28.35;12.70;;;20.10;99.90;;;;;;5027395;28;20406;-74
2023/10/14 08:18:06;;;;;;;24.67;12.00;;;20.40;99.90;;;;;;5028724;28;20052;-73
2023/10/14 08:20:32;;;;;;;28.58;13.02;;;20.60;99.90;;;;;;5028838;28;20017;-73
2023/10/14 08:22:58;;;;;;;20.77;10.75;;;20.80;99.90;;;;;;5028820;28;20498;-74
2023/10/14 08:25:25;;;;;;;24.08;12.05;;;21.20;99.90;;;;;;5027330;28;20025;-73
2023/10/14 08:27:53;;;;;;;25.73;14.50;;;21.90;99.90;;;;;;5028568;28;20043;-75
2023/10/14 08:30:24;;;;;;;19.40;10.45;;;22.50;99.90;;;;;;5028688;28;20030;-75
2023/10/14 08:32:50;;;;;;;20.08;10.10;;;23.30;99.90;;;;;;5028679;28;20116;-75
2023/10/14 08:35:16;;;;;;;20.92;11.02;;;23.90;97.80;;;;;;5028422;28;20076;-76
2023/10/14 08:37:47;;;;;;;20.35;10.95;;;24.30;94.00;;;;;;5028394;28;20080;-76
2023/10/14 08:40:21;;;;;;;16.00;9.82;;;24.90;90.70;;;;;;5028761;28;20033;-75
2023/10/14 08:43:14;;;;;;;22.98;12.95;;;25.40;85.60;;;;;;5031611;28;20367;-75
2023/10/14 08:45:41;;;;;;;19.30;11.15;;;25.70;78.30;;;;;;5031041;28;20079;-76
2023/10/14 08:48:14;;;;;;;14.52;8.93;;;26.10;75.80;;;;;;5032225;28;20029;-76
2023/10/14 08:50:41;;;;;;;21.55;10.70;;;26.50;74.80;;;;;;5030994;28;20457;-76
2023/10/14 08:53:17;;;;;;;19.45;10.05;;;26.80;70.30;;;;;;5032375;28;20505;-76
2023/10/14 08:55:47;;;;;;;30.10;11.93;;;27.10;68.80;;;;;;5031127;28;20044;-75
2023/10/14 08:58:13;;;;;;;18.80;11.68;;;27.30;65.20;;;;;;5030818;28;20033;-75
2023/10/14 09:00:41;;;;;;;17.90;12.23;;;27.40;63.60;;;;;;5032020;28;20049;-76
2023/10/14 09:03:09;;;;;;;20.55;12.23;;;27.60;62.00;;;;;;5032094;28;20075;-75
2023/10/14 09:05:41;;;;;;;17.75;10.05;;;27.80;60.50;;;;;;5032001;28;20026;-75
2023/10/14 09:08:09;;;;;;;17.13;9.40;;;28.00;59.20;;;;;;5032069;28;20050;-73
2023/10/14 09:10:39;;;;;;;13.85;10.10;;;28.20;57.80;;;;;;5032025;28;20025;-74
2023/10/14 09:13:08;;;;;;;19.20;10.93;;;28.10;56.80;;;;;;5032080;28;20043;-73
2023/10/14 09:15:39;;;;;;;19.35;11.02;;;28.40;55.90;;;;;;5030874;28;20014;-74
2023/10/14 09:18:13;;;;;;;20.05;9.77;;;28.60;55.80;;;;;;5030643;28;20057;-74
2023/10/14 09:20:39;;;;;;;16.30;10.15;;;28.70;54.60;;;;;;5031913;28;20021;-73
2023/10/14 09:23:24;;;;;;;15.73;10.38;;;29.00;54.20;;;;;;5031656;28;20036;-73
2023/10/14 09:25:55;;;;;;;22.80;10.65;;;29.10;52.30;;;;;;5031610;28;20025;-74
2023/10/14 09:28:25;;;;;;;18.60;10.98;;;29.30;51.50;;;;;;5031507;28;20041;-73
2023/10/14 09:30:52;;;;;;;21.33;12.02;;;29.60;50.70;;;;;;5031711;28;20025;-73
2023/10/14 09:33:28;;;;;;;25.02;10.98;;;29.70;49.50;;;;;;5031277;28;20103;-73
2023/10/14 09:36:11;;;;;;;22.73;11.13;;;29.70;49.10;;;;;;5031396;28;20104;-73
2023/10/14 09:38:37;;;;;;;20.92;11.68;;;29.40;49.40;;;;;;5031361;28;20037;-74
2023/10/14 09:41:05;;;;;;;19.40;10.95;;;28.60;50.80;;;;;;5031404;28;20026;-74
2023/10/14 09:43:32;;;;;;;19.88;12.32;;;27.70;52.90;;;;;;5031418;28;20048;-74
2023/10/14 09:46:00;;;;;;;22.20;12.68;;;27.00;54.30;;;;;;5031238;28;20033;-74
2023/10/14 09:48:31;;;;;;;19.08;12.48;;;26.30;55.40;;;;;;5031229;28;20031;-76
2023/10/14 09:51:00;;;;;;;23.75;12.52;;;25.60;58.40;;;;;;5031472;28;20604;-76
2023/10/14 09:53:36;;;;;;;29.10;13.90;;;25.20;60.40;;;;;;5030645;28;20021;-76
2023/10/14 09:56:06;;;;;;;;;;;24.70;62.10;;;;;;5031421;28;20035;-75
2023/10/14 09:58:37;;;;;;;30.23;15.65;;;24.50;63.80;;;;;;5031210;28;19955;-76
2023/10/14 10:01:06;;;;;;;23.88;11.80;;;24.20;64.20;;;;;;5031384;28;20026;-75
2023/10/14 10:03:37;;;;;;;21.90;12.07;;;23.80;67.40;;;;;;5031026;28;20034;-75
2023/10/14 10:06:21;;;;;;;22.13;14.55;;;23.60;69.60;;;;;;5031062;28;20040;-75
2023/10/14 10:08:55;;;;;;;29.35;14.60;;;23.40;71.20;;;;;;5030815;28;20514;-76
2023/10/14 10:11:25;;;;;;;25.83;14.82;;;23.20;72.80;;;;;;5030731;28;20053;-76
2023/10/14 10:13:52;;;;;;;39.42;15.40;;;23.20;72.80;;;;;;5030708;28;20029;-75
2023/10/14 10:16:21;;;;;;;27.30;14.52;;;23.20;72.00;;;;;;5030673;28;20557;-76
2023/10/14 10:18:58;;;;;;;25.65;14.23;;;22.90;74.90;;;;;;5029175;28;20061;-75
2023/10/14 10:21:31;;;;;;;21.80;12.40;;;22.70;77.00;;;;;;5030641;28;20021;-76
2023/10/14 10:24:02;;;;;;;20.55;13.43;;;22.60;78.30;;;;;;5030437;28;20061;-76
2023/10/14 10:26:58;;;;;;;26.48;14.82;;;22.60;78.90;;;;;;5030480;28;20394;-76
2023/10/14 10:29:25;;;;;;;23.50;12.65;;;22.60;79.20;;;;;;5030507;28;20036;-75
2023/10/14 10:32:12;;;;;;;23.45;14.02;;;22.60;79.60;;;;;;5030564;28;20040;-76
2023/10/14 10:35:06;;;;;;;34.78;14.50;;;22.70;80.30;;;;;;5030272;28;20033;-75
2023/10/14 10:37:40;;;;;;;22.10;12.82;;;22.60;80.20;;;;;;5030300;28;20029;-76
2023/10/14 10:40:11;;;;;;;27.33;14.00;;;22.60;81.40;;;;;;5029018;28;20037;-75
2023/10/14 10:42:46;;;;;;;30.63;13.40;;;22.60;82.80;;;;;;5030242;28;20394;-75
2023/10/14 10:45:22;;;;;;;21.98;12.88;;;22.50;83.40;;;;;;5029103;28;20029;-75
2023/10/14 10:47:56;;;;;;;24.27;13.48;;;22.60;84.00;;;;;;5029198;28;20045;-75
2023/10/14 10:50:36;;;;;;;23.13;13.00;;;22.60;83.90;;;;;;5030815;28;20104;-75
2023/10/14 10:53:08;;;;;;;34.88;15.15;;;22.60;83.80;;;;;;5028823;28;20028;-76
2023/10/14 10:55:43;;;;;;;21.95;14.98;;;22.60;82.40;;;;;;5028721;28;20087;-75
2023/10/14 10:58:14;;;;;;;23.67;10.40;;;22.60;80.90;;;;;;5029931;28;20025;-75
2023/10/14 11:00:47;;;;;;;18.77;11.63;;;22.60;82.30;;;;;;5045204;28;20039;-75
2023/10/14 11:03:15;;;;;;;31.45;14.57;;;22.60;84.40;;;;;;5029684;28;20025;-75
2023/10/14 11:05:43;;;;;;;25.67;13.18;;;22.60;85.20;;;;;;5027797;28;20397;-75
2023/10/14 11:08:09;;;;;;;22.33;12.52;;;22.60;84.30;;;;;;5029632;28;20133;-75
2023/10/14 11:10:44;;;;;;;20.58;11.93;;;22.60;83.50;;;;;;5029681;28;20152;-76
2023/10/14 11:13:11;;;;;;;27.42;13.07;;;22.60;83.80;;;;;;5028536;28;20112;-76
2023/10/14 11:15:38;;;;;;;26.15;11.70;;;22.70;83.40;;;;;;5028276;28;20037;-75
2023/10/14 11:18:04;;;;;;;26.52;11.75;;;22.70;84.20;;;;;;5029252;28;20147;-76
2023/10/14 11:20:41;;;;;;;23.50;13.18;;;22.70;84.90;;;;;;5029428;28;20025;-75
2023/10/14 11:23:11;;;;;;;24.73;13.85;;;22.70;82.70;;;;;;5029415;28;20034;-76
2023/10/14 11:25:49;;;;;;;29.88;14.35;;;22.70;82.80;;;;;;5029374;28;20022;-75
2023/10/14 11:28:15;;;;;;;29.33;14.13;;;22.70;84.10;;;;;;5029292;28;20494;-75
2023/10/14 11:30:43;;;;;;;23.65;13.85;;;22.60;82.80;;;;;;5029378;28;20035;-75
2023/10/14 11:33:10;;;;;;;25.95;13.15;;;22.50;83.60;;;;;;5029609;28;20033;-76
2023/10/14 11:35:37;;;;;;;26.52;12.88;;;22.50;84.80;;;;;;5029439;28;20119;-76
2023/10/14 11:38:06;;;;;;;28.40;13.70;;;22.60;85.40;;;;;;5027984;28;20115;-75
2023/10/14 11:40:36;;;;;;;23.38;13.43;;;22.60;84.40;;;;;;5028057;28;20037;-75
2023/10/14 11:43:03;;;;;;;21.13;13.82;;;22.60;84.80;;;;;;5029121;28;20030;-75
2023/10/14 11:45:30;;;;;;;28.98;12.65;;;22.70;84.60;;;;;;5027903;28;20025;-75
2023/10/14 11:47:56;;;;;;;24.70;13.18;;;22.70;84.50;;;;;;5044538;28;20116;-75
2023/10/14 11:50:22;;;;;;;20.88;10.32;;;22.60;84.90;;;;;;5027706;28;20175;-75
2023/10/14 11:52:52;;;;;;;20.98;11.05;;;22.60;85.70;;;;;;5029059;28;20389;-76
2023/10/14 11:55:19;;;;;;;20.40;10.10;;;22.60;87.10;;;;;;5028851;28;20032;-75
2023/10/14 11:57:47;;;;;;;27.80;10.48;;;22.60;87.80;;;;;;5028812;28;20485;-75
2023/10/14 12:00:17;;;;;;;22.52;10.98;;;22.70;88.30;;;;;;5028851;28;20014;-75
2023/10/14 12:02:47;;;;;;;19.60;11.75;;;22.70;87.80;;;;;;5027601;28;20120;-76
2023/10/14 12:05:16;;;;;;;28.80;13.73;;;22.80;86.50;;;;;;5028870;28;20028;-76
2023/10/14 12:07:47;;;;;;;18.42;11.10;;;22.90;83.90;;;;;;5028887;28;20040;-76
2023/10/14 12:10:13;;;;;;;26.98;11.07;;;22.90;84.90;;;;;;5028703;28;20021;-74
2023/10/14 12:12:39;;;;;;;16.52;8.93;;;22.90;84.30;;;;;;5027330;28;20466;-75
2023/10/14 12:15:08;;;;;;;18.55;10.30;;;22.90;84.40;;;;;;5028615;28;20566;-75
2023/10/14 12:17:34;;;;;;;18.95;9.55;;;23.00;84.20;;;;;;5028557;28;20147;-75
2023/10/14 12:20:06;;;;;;;17.65;11.07;;;23.10;84.90;;;;;;5028804;28;20022;-75
2023/10/14 12:22:32;;;;;;;16.85;9.35;;;23.10;84.30;;;;;;5027681;28;20033;-76
2023/10/14 12:24:58;;;;;;;18.25;9.30;;;23.20;84.20;;;;;;5044014;28;20037;-75
2023/10/14 12:27:28;;;;;;;21.80;10.93;;;23.30;84.50;;;;;;5027261;28;20036;-75
2023/10/14 12:29:54;;;;;;;18.75;9.75;;;23.30;82.50;;;;;;5028623;28;20053;-76
2023/10/14 12:32:20;;;;;;;20.67;9.77;;;23.30;83.10;;;;;;5027219;28;20107;-76
2023/10/14 12:34:48;;;;;;;24.85;11.15;;;23.40;83.00;;;;;;5028475;28;20064;-75
2023/10/14 12:37:21;;;;;;;25.92;10.75;;;23.60;80.40;;;;;;5028426;28;20037;-75
2023/10/14 12:40:11;;;;;;;19.00;9.57;;;23.60;80.60;;;;;;5043897;28;20034;-75
2023/10/14 12:42:47;;;;;;;21.83;10.38;;;23.70;80.50;;;;;;5027395;28;20528;-75
2023/10/14 12:45:20;;;;;;;15.80;9.00;;;23.70;79.30;;;;;;5028426;28;20037;-76
2023/10/14 12:47:47;;;;;;;18.58;9.90;;;23.80;78.50;;;;;;5028197;28;20041;-75
2023/10/14 12:50:19;;;;;;;20.17;8.02;;;23.70;78.90;;;;;;5027259;28;20119;-76
2023/10/14 12:53:00;;;;;;;16.58;9.40;;;23.80;80.20;;;;;;5044032;28;20037;-75
2023/10/14 12:55:26;;;;;;;14.30;8.20;;;23.80;78.70;;;;;;5027152;28;20022;-75
2023/10/14 12:57:54;;;;;;;16.05;9.15;;;23.90;78.10;;;;;;5043818;28;20465;-76
2023/10/14 13:00:25;;;;;;;20.02;8.15;;;23.90;77.40;;;;;;5026993;28;20033;-75
2023/10/14 13:02:53;;;;;;;13.15;8.90;;;23.90;77.50;;;;;;5043867;28;20079;-76
2023/10/14 13:05:20;;;;;;;12.77;8.20;;;24.00;76.90;;;;;;5027003;28;20067;-75
2023/10/14 13:07:52;;;;;;;11.80;7.95;;;24.00;76.00;;;;;;5026887;28;20076;-74
2023/10/14 13:10:25;;;;;;;24.00;9.27;;;24.00;75.90;;;;;;5027141;28;20022;-75
2023/10/14 13:13:00;;;;;;;19.98;9.20;;;23.90;75.20;;;;;;5027410;28;20142;-76
2023/10/14 13:15:28;;;;;;;22.65;9.52;;;23.90;74.90;;;;;;5027047;28;20028;-76
2023/10/14 13:18:12;;;;;;;23.50;9.30;;;23.80;74.70;;;;;;5026701;28;20061;-75
2023/10/14 13:20:38;;;;;;;18.52;8.25;;;23.80;74.30;;;;;;5028245;28;20116;-75
2023/10/14 13:23:09;;;;;;;16.02;7.95;;;23.70;75.30;;;;;;5043462;28;20113;-75
2023/10/14 13:25:36;;;;;;;15.30;8.57;;;23.70;76.20;;;;;;5026935;28;20041;-76